FranceFixed distance
Luchon Aneto Trail - Lat Challenge
8–9 Jul2023·2 stages
Distance
87km
Finishers
124102 men22 women
Winning time
10:04:36h
Median pace
5.75km/h
Pace distribution
124 finishers · 4.47–8.63 km/h · mean 5.95
Every finisher ran the same 87 km course, so these paces are directly comparable.
Histogram of finisher pace. 124 finishers ranged from 4.47 to 8.63 kilometres per hour, with a mean of 5.95 and a median of 5.75. The busiest band is 5.0 to 5.5 kilometres per hour, with 35 finishers.
Results
Ranks 51–100 of 124
| Rank | Runner | Time | Pace | Cat. | Placing |
|---|---|---|---|---|---|
| 51 | Team Trail 17 | 14:20:04h | 6.07 | M40 | 44th M · 9th M40 |
| 52 | Tyrosse | 14:24:06h | 6.04 | M45 | 45th M · 6th M45 |
| 53 | 14:25:49h | 6.03 | M45 | 46th M · 7th M45 | |
| 54 | Team Bigorra | 14:26:33h | 6.02 | W23 | 8th F · 4th W23 |
| 55 | SUA Athletisme | 14:27:54h | 6.01 | M40 | 47th M · 10th M40 |
| 56 | CAF Toulouse | 14:30:53h | 5.99 | M50 | 48th M · 3rd M50 |
| 57 | 14:35:15h | 5.96 | M40 | 49th M · 11th M40 | |
| 58 | Lsvt | 14:36:53h | 5.95 | W23 | 9th F · 5th W23 |
| 59 | Airbus | 14:37:26h | 5.95 | W45 | 10th F · 3rd W45 |
| 60 | Sainte Maxime Athle | 14:38:57h | 5.94 | W23 | 11th F · 6th W23 |
| 61 | 14:47:57h | 5.88 | M50 | 50th M · 4th M50 | |
| 62 | Team Trail 17 | 14:51:08h | 5.86 | M45 | 51st M · 8th M45 |
| 63 | 15:08:39h | 5.75 | M55 | 52nd M · 1st M55 | |
| 64 | 15:13:48h | 5.71 | M45 | 53rd M · 9th M45 | |
| 65 | les XII Spartiates | 15:15:16h | 5.70 | M45 | 54th M · 10th M45 |
| 66 | Tarbes Pyrenees Athlet... | 15:23:43h | 5.65 | M35 | 55th M · 12th M35 |
| 67 | 15:28:57h | 5.62 | M45 | 56th M · 11th M45 | |
| 68 | 15:31:11h | 5.61 | M45 | 57th M · 12th M45 | |
| 69 | Trail OR NOT | 15:31:30h | 5.60 | M45 | 58th M · 13th M45 |
| 70 | Run IN Mouilleron | 15:37:24h | 5.57 | M35 | 59th M · 13th M35 |
| 71 | Bpbo31 | 15:41:28h | 5.54 | M60 | 60th M · 1st M60 |
| 72 | Team Trail 17 | 15:50:01h | 5.50 | M50 | 61st M · 5th M50 |
| 73 | Courir Fonsegrives | 15:51:01h | 5.49 | M50 | 62nd M · 6th M50 |
| 74 | Toulouse Triathlon | 15:53:29h | 5.47 | M40 | 63rd M · 12th M40 |
| 75 | Run IN Niort | 15:55:10h | 5.46 | W45 | 12th F · 4th W45 |
| 76 | 15:55:41h | 5.46 | W45 | 13th F · 5th W45 | |
| 77 | Trail IN France | 15:56:07h | 5.46 | M55 | 64th M · 2nd M55 |
| 78 | 16:01:49h | 5.43 | M55 | 65th M · 3rd M55 | |
| 79 | ASM PAU | 16:02:09h | 5.42 | W23 | 14th F · 7th W23 |
| 80 | 16:02:23h | 5.42 | M45 | 66th M · 14th M45 | |
| 81 | 16:03:53h | 5.42 | M40 | 67th M · 13th M40 | |
| 82 | Courir Fonsegrives | 16:05:57h | 5.40 | M50 | 68th M · 7th M50 |
| 83 | Team Trail 17 | 16:08:14h | 5.39 | M45 | 69th M · 15th M45 |
| 84 | 16:08:38h | 5.39 | M23 | 70th M · 17th M23 | |
| 85 | Oxygene 32 | 16:09:06h | 5.39 | M45 | 71st M · 16th M45 |
| 86 | Canejan Athletisme | 16:09:50h | 5.38 | M50 | 72nd M · 8th M50 |
| 87 | Team 226 | 16:11:18h | 5.37 | M45 | 73rd M · 17th M45 |
| 87 | Double Impact | 16:11:18h | 5.37 | M50 | 73rd M · 9th M50 |
| 89 | 16:12:08h | 5.37 | M40 | 75th M · 14th M40 | |
| 90 | Satuc | 16:16:20h | 5.35 | W45 | 15th F · 6th W45 |
| 91 | Entente des Mauges | 16:28:53h | 5.28 | M23 | 76th M · 18th M23 |
| 92 | 16:37:03h | 5.24 | W35 | 16th F · 3rd W35 | |
| 93 | L Elan Girouardai | 16:38:14h | 5.23 | M40 | 77th M · 15th M40 |
| 94 | 16:40:14h | 5.22 | M35 | 78th M · 14th M35 | |
| 95 | Run IN Mouilleron | 16:41:49h | 5.21 | M35 | 79th M · 15th M35 |
| 96 | AC Roche-SUR-Yon | 16:46:55h | 5.18 | M50 | 80th M · 10th M50 |
| 97 | 16:49:20h | 5.17 | M40 | 81st M · 16th M40 | |
| 98 | Team Solo Frouzins | 16:53:31h | 5.15 | M50 | 82nd M · 11th M50 |
| 99 | Courir Fonsegrives | 16:56:08h | 5.14 | W55 | 17th F · 1st W55 |
| 100 | Lauragais Athletisme C... | 17:01:04h | 5.11 | W45 | 18th F · 7th W45 |
- 51Team Trail 1744th M · 9th M40Time14:20:04hPace6.07Cat.M40
- 52Tyrosse45th M · 6th M45Time14:24:06hPace6.04Cat.M45
- 5346th M · 7th M45Time14:25:49hPace6.03Cat.M45
- 54Team Bigorra8th F · 4th W23Time14:26:33hPace6.02Cat.W23
- 55SUA Athletisme47th M · 10th M40Time14:27:54hPace6.01Cat.M40
- 56CAF Toulouse48th M · 3rd M50Time14:30:53hPace5.99Cat.M50
- 5749th M · 11th M40Time14:35:15hPace5.96Cat.M40
- 58Lsvt9th F · 5th W23Time14:36:53hPace5.95Cat.W23
- 59Airbus10th F · 3rd W45Time14:37:26hPace5.95Cat.W45
- 60Sainte Maxime Athle11th F · 6th W23Time14:38:57hPace5.94Cat.W23
- 6150th M · 4th M50Time14:47:57hPace5.88Cat.M50
- 62Team Trail 1751st M · 8th M45Time14:51:08hPace5.86Cat.M45
- 6352nd M · 1st M55Time15:08:39hPace5.75Cat.M55
- 6453rd M · 9th M45Time15:13:48hPace5.71Cat.M45
- 65les XII Spartiates54th M · 10th M45Time15:15:16hPace5.70Cat.M45
- 66Tarbes Pyrenees Athlet...55th M · 12th M35Time15:23:43hPace5.65Cat.M35
- 6756th M · 11th M45Time15:28:57hPace5.62Cat.M45
- 6857th M · 12th M45Time15:31:11hPace5.61Cat.M45
- 69Trail OR NOT58th M · 13th M45Time15:31:30hPace5.60Cat.M45
- 70Run IN Mouilleron59th M · 13th M35Time15:37:24hPace5.57Cat.M35
- 71Bpbo3160th M · 1st M60Time15:41:28hPace5.54Cat.M60
- 72Team Trail 1761st M · 5th M50Time15:50:01hPace5.50Cat.M50
- 73Courir Fonsegrives62nd M · 6th M50Time15:51:01hPace5.49Cat.M50
- 74Toulouse Triathlon63rd M · 12th M40Time15:53:29hPace5.47Cat.M40
- 75Run IN Niort12th F · 4th W45Time15:55:10hPace5.46Cat.W45
- 7613th F · 5th W45Time15:55:41hPace5.46Cat.W45
- 77Trail IN France64th M · 2nd M55Time15:56:07hPace5.46Cat.M55
- 7865th M · 3rd M55Time16:01:49hPace5.43Cat.M55
- 79ASM PAU14th F · 7th W23Time16:02:09hPace5.42Cat.W23
- 8066th M · 14th M45Time16:02:23hPace5.42Cat.M45
- 8167th M · 13th M40Time16:03:53hPace5.42Cat.M40
- 82Courir Fonsegrives68th M · 7th M50Time16:05:57hPace5.40Cat.M50
- 83Team Trail 1769th M · 15th M45Time16:08:14hPace5.39Cat.M45
- 8470th M · 17th M23Time16:08:38hPace5.39Cat.M23
- 85Oxygene 3271st M · 16th M45Time16:09:06hPace5.39Cat.M45
- 86Canejan Athletisme72nd M · 8th M50Time16:09:50hPace5.38Cat.M50
- 87Team 22673rd M · 17th M45Time16:11:18hPace5.37Cat.M45
- 87Double Impact73rd M · 9th M50Time16:11:18hPace5.37Cat.M50
- 8975th M · 14th M40Time16:12:08hPace5.37Cat.M40
- 90Satuc15th F · 6th W45Time16:16:20hPace5.35Cat.W45
- 91Entente des Mauges76th M · 18th M23Time16:28:53hPace5.28Cat.M23
- 9216th F · 3rd W35Time16:37:03hPace5.24Cat.W35
- 93L Elan Girouardai77th M · 15th M40Time16:38:14hPace5.23Cat.M40
- 9478th M · 14th M35Time16:40:14hPace5.22Cat.M35
- 95Run IN Mouilleron79th M · 15th M35Time16:41:49hPace5.21Cat.M35
- 96AC Roche-SUR-Yon80th M · 10th M50Time16:46:55hPace5.18Cat.M50
- 9781st M · 16th M40Time16:49:20hPace5.17Cat.M40
- 98Team Solo Frouzins82nd M · 11th M50Time16:53:31hPace5.15Cat.M50
- 99Courir Fonsegrives17th F · 1st W55Time16:56:08hPace5.14Cat.W55
- 100Lauragais Athletisme C...18th F · 7th W45Time17:01:04hPace5.11Cat.W45
Showing ranks 51–100 of 124